Main page
METAR-TAF:

METAR-TAF

Airports :

Malindi Airport

Malindi, Kenya

latitude: 03-14S, longitude: 040-06E, elevation: 20 m

Current weather observation

The report was made 7 hours and 4 minutes ago, at 16:00 UTC
Wind 10 kt from the South/Southwest
Temperature 25°C
Humidity 83%
Pressure 1014 hPa
Visibility 10 km or more
Few clouds at a height of 2000 ft
Broken clouds at a height of 9000 ft

METAR: HKML 191600Z 21010KT 9999 FEW020 BKN090 25/22 Q1014

Time: 02:04 (23:04 UTC)

Forecast

The report was made 6 hours and 4 minutes ago, at 17:00 UTC
Forecast valid from 19 at 18 UTC to 20 at 18 UTC
Wind 15 kt from the South
Visibility 10 km or more
Scattered clouds at a height of 1900 ft
Broken clouds at a height of 8000 ft
rain
Becoming
from 20 at 00 UTC to 20 at 03 UTC
Wind kt from the North
Becoming
from 20 at 09 UTC to 20 at 12 UTC
Wind 10 kt from the South

TAF: HKML 191700Z 1918/2018 18015KT 9999 RA SCT019 BKN080 BECMG 2000/2003 00000KT BECMG 2009/2012 18010KT

Weather observations and forecasts of more than 4000 airports (METAR and TAF reports).

The available stations are represented by yellow and red dots on the map.

Hover mouse over dot to see the name of the station.

Then click to see weather observations and forecasts.

To change the map : click on the green buttons with a black cross to zoom in, on the green button with a dash to zoom out, or on the green arrows for adjacent maps.


METAR-TAF: